sensor_id;sensor_type;location;lat;lon;timestamp;P1;durP1;ratioP1;P2;durP2;ratioP2
8837;SDS011;4455;50.880;4.698;2022-07-23T00:00:24;18.50;;;12.43;;
8837;SDS011;4455;50.880;4.698;2022-07-23T00:02:50;13.90;;;12.03;;
8837;SDS011;4455;50.880;4.698;2022-07-23T00:05:16;16.70;;;12.77;;
8837;SDS011;4455;50.880;4.698;2022-07-23T00:07:42;17.00;;;13.30;;
8837;SDS011;4455;50.880;4.698;2022-07-23T00:10:08;16.40;;;12.87;;
8837;SDS011;4455;50.880;4.698;2022-07-23T00:12:34;18.37;;;13.67;;
8837;SDS011;4455;50.880;4.698;2022-07-23T00:15:00;17.37;;;13.77;;
8837;SDS011;4455;50.880;4.698;2022-07-23T00:17:26;17.63;;;13.67;;
8837;SDS011;4455;50.880;4.698;2022-07-23T00:19:52;16.27;;;12.63;;
8837;SDS011;4455;50.880;4.698;2022-07-23T00:22:18;17.03;;;12.97;;
8837;SDS011;4455;50.880;4.698;2022-07-23T00:24:44;17.70;;;13.10;;
8837;SDS011;4455;50.880;4.698;2022-07-23T00:27:10;17.47;;;12.87;;
8837;SDS011;4455;50.880;4.698;2022-07-23T00:29:36;18.20;;;13.03;;
8837;SDS011;4455;50.880;4.698;2022-07-23T00:32:02;17.77;;;13.63;;
8837;SDS011;4455;50.880;4.698;2022-07-23T00:34:28;12.57;;;10.57;;
8837;SDS011;4455;50.880;4.698;2022-07-23T00:36:54;16.37;;;13.67;;
8837;SDS011;4455;50.880;4.698;2022-07-23T00:39:20;17.00;;;13.53;;
8837;SDS011;4455;50.880;4.698;2022-07-23T00:41:49;17.17;;;13.93;;
8837;SDS011;4455;50.880;4.698;2022-07-23T00:44:16;17.17;;;14.40;;
8837;SDS011;4455;50.880;4.698;2022-07-23T00:46:47;20.67;;;14.63;;
8837;SDS011;4455;50.880;4.698;2022-07-23T00:49:25;16.40;;;13.80;;
8837;SDS011;4455;50.880;4.698;2022-07-23T00:51:53;17.83;;;14.73;;
8837;SDS011;4455;50.880;4.698;2022-07-23T00:54:19;19.13;;;14.27;;
8837;SDS011;4455;50.880;4.698;2022-07-23T00:56:46;17.13;;;14.57;;
8837;SDS011;4455;50.880;4.698;2022-07-23T00:59:13;16.50;;;14.63;;
8837;SDS011;4455;50.880;4.698;2022-07-23T01:01:39;19.20;;;15.27;;
8837;SDS011;4455;50.880;4.698;2022-07-23T01:04:06;20.47;;;14.50;;
8837;SDS011;4455;50.880;4.698;2022-07-23T01:06:36;16.70;;;13.87;;
8837;SDS011;4455;50.880;4.698;2022-07-23T01:09:03;17.97;;;14.73;;
8837;SDS011;4455;50.880;4.698;2022-07-23T01:11:31;21.87;;;16.00;;
8837;SDS011;4455;50.880;4.698;2022-07-23T01:14:08;18.93;;;15.43;;
8837;SDS011;4455;50.880;4.698;2022-07-23T01:16:37;18.60;;;15.07;;
8837;SDS011;4455;50.880;4.698;2022-07-23T01:19:04;16.53;;;14.63;;
8837;SDS011;4455;50.880;4.698;2022-07-23T01:21:33;20.43;;;16.20;;
8837;SDS011;4455;50.880;4.698;2022-07-23T01:24:21;19.80;;;15.33;;
8837;SDS011;4455;50.880;4.698;2022-07-23T01:26:47;19.87;;;15.57;;
8837;SDS011;4455;50.880;4.698;2022-07-23T01:29:14;22.93;;;15.57;;
8837;SDS011;4455;50.880;4.698;2022-07-23T01:31:40;22.87;;;16.03;;
8837;SDS011;4455;50.880;4.698;2022-07-23T01:34:06;19.53;;;16.37;;
8837;SDS011;4455;50.880;4.698;2022-07-23T01:36:34;18.27;;;15.53;;
8837;SDS011;4455;50.880;4.698;2022-07-23T01:39:01;21.00;;;17.00;;
8837;SDS011;4455;50.880;4.698;2022-07-23T01:41:28;22.53;;;16.07;;
8837;SDS011;4455;50.880;4.698;2022-07-23T01:43:54;20.30;;;16.67;;
8837;SDS011;4455;50.880;4.698;2022-07-23T01:46:19;20.37;;;16.47;;
8837;SDS011;4455;50.880;4.698;2022-07-23T01:48:46;20.13;;;15.93;;
8837;SDS011;4455;50.880;4.698;2022-07-23T01:51:12;18.67;;;16.17;;
8837;SDS011;4455;50.880;4.698;2022-07-23T01:53:38;22.47;;;16.83;;
8837;SDS011;4455;50.880;4.698;2022-07-23T01:56:04;21.60;;;16.40;;
8837;SDS011;4455;50.880;4.698;2022-07-23T01:58:30;21.27;;;16.20;;
8837;SDS011;4455;50.880;4.698;2022-07-23T02:00:56;21.07;;;16.27;;
8837;SDS011;4455;50.880;4.698;2022-07-23T02:03:22;22.67;;;17.13;;
8837;SDS011;4455;50.880;4.698;2022-07-23T02:05:48;20.80;;;17.97;;
8837;SDS011;4455;50.880;4.698;2022-07-23T02:08:14;20.33;;;16.50;;
8837;SDS011;4455;50.880;4.698;2022-07-23T02:10:40;22.07;;;16.83;;
8837;SDS011;4455;50.880;4.698;2022-07-23T02:13:06;20.37;;;16.07;;
8837;SDS011;4455;50.880;4.698;2022-07-23T02:15:32;22.93;;;16.33;;
8837;SDS011;4455;50.880;4.698;2022-07-23T02:17:58;23.43;;;16.97;;
8837;SDS011;4455;50.880;4.698;2022-07-23T02:20:24;21.00;;;16.70;;
8837;SDS011;4455;50.880;4.698;2022-07-23T02:22:50;22.63;;;17.37;;
8837;SDS011;4455;50.880;4.698;2022-07-23T02:25:17;19.53;;;15.93;;
8837;SDS011;4455;50.880;4.698;2022-07-23T02:27:43;17.93;;;15.77;;
8837;SDS011;4455;50.880;4.698;2022-07-23T02:30:09;22.70;;;16.63;;
8837;SDS011;4455;50.880;4.698;2022-07-23T02:32:35;20.73;;;16.50;;
8837;SDS011;4455;50.880;4.698;2022-07-23T02:35:02;22.50;;;16.57;;
8837;SDS011;4455;50.880;4.698;2022-07-23T02:37:29;23.23;;;16.53;;
8837;SDS011;4455;50.880;4.698;2022-07-23T02:39:55;18.37;;;14.80;;
8837;SDS011;4455;50.880;4.698;2022-07-23T02:42:21;24.57;;;16.90;;
8837;SDS011;4455;50.880;4.698;2022-07-23T02:44:49;21.73;;;16.73;;
8837;SDS011;4455;50.880;4.698;2022-07-23T02:47:16;23.40;;;16.47;;
8837;SDS011;4455;50.880;4.698;2022-07-23T02:49:42;20.33;;;16.70;;
8837;SDS011;4455;50.880;4.698;2022-07-23T02:52:08;20.03;;;16.30;;
8837;SDS011;4455;50.880;4.698;2022-07-23T02:54:36;21.60;;;16.67;;
8837;SDS011;4455;50.880;4.698;2022-07-23T02:57:02;21.77;;;16.90;;
8837;SDS011;4455;50.880;4.698;2022-07-23T02:59:29;22.57;;;17.17;;
8837;SDS011;4455;50.880;4.698;2022-07-23T03:01:54;24.13;;;16.87;;
8837;SDS011;4455;50.880;4.698;2022-07-23T03:04:20;20.50;;;16.87;;
8837;SDS011;4455;50.880;4.698;2022-07-23T03:06:46;18.13;;;16.20;;
8837;SDS011;4455;50.880;4.698;2022-07-23T03:09:12;20.67;;;17.50;;
8837;SDS011;4455;50.880;4.698;2022-07-23T03:11:38;23.43;;;17.43;;
8837;SDS011;4455;50.880;4.698;2022-07-23T03:14:03;21.70;;;17.80;;
8837;SDS011;4455;50.880;4.698;2022-07-23T03:16:31;22.87;;;17.20;;
8837;SDS011;4455;50.880;4.698;2022-07-23T03:18:56;21.87;;;16.73;;
8837;SDS011;4455;50.880;4.698;2022-07-23T03:21:22;19.00;;;15.87;;
8837;SDS011;4455;50.880;4.698;2022-07-23T03:23:48;21.60;;;16.20;;
8837;SDS011;4455;50.880;4.698;2022-07-23T03:26:15;19.00;;;15.60;;
8837;SDS011;4455;50.880;4.698;2022-07-23T03:28:41;18.93;;;16.40;;
8837;SDS011;4455;50.880;4.698;2022-07-23T03:31:07;20.73;;;15.87;;
8837;SDS011;4455;50.880;4.698;2022-07-23T03:33:33;20.47;;;15.80;;
8837;SDS011;4455;50.880;4.698;2022-07-23T03:35:59;20.70;;;16.00;;
8837;SDS011;4455;50.880;4.698;2022-07-23T03:38:25;18.57;;;16.53;;
8837;SDS011;4455;50.880;4.698;2022-07-23T03:40:51;20.70;;;16.27;;
8837;SDS011;4455;50.880;4.698;2022-07-23T03:43:17;19.67;;;15.83;;
8837;SDS011;4455;50.880;4.698;2022-07-23T03:45:43;23.37;;;16.83;;
8837;SDS011;4455;50.880;4.698;2022-07-23T03:48:08;21.80;;;15.83;;
8837;SDS011;4455;50.880;4.698;2022-07-23T03:50:35;23.33;;;16.77;;
8837;SDS011;4455;50.880;4.698;2022-07-23T03:53:03;24.03;;;16.73;;
8837;SDS011;4455;50.880;4.698;2022-07-23T03:55:29;22.97;;;17.27;;
8837;SDS011;4455;50.880;4.698;2022-07-23T03:57:55;25.17;;;17.90;;
8837;SDS011;4455;50.880;4.698;2022-07-23T04:00:22;21.87;;;16.63;;
8837;SDS011;4455;50.880;4.698;2022-07-23T04:02:48;25.10;;;17.57;;
8837;SDS011;4455;50.880;4.698;2022-07-23T04:05:13;21.20;;;16.70;;
8837;SDS011;4455;50.880;4.698;2022-07-23T04:07:40;19.80;;;16.23;;
8837;SDS011;4455;50.880;4.698;2022-07-23T04:10:06;20.43;;;16.10;;
8837;SDS011;4455;50.880;4.698;2022-07-23T04:12:32;23.57;;;17.57;;
8837;SDS011;4455;50.880;4.698;2022-07-23T04:14:58;24.63;;;16.93;;
8837;SDS011;4455;50.880;4.698;2022-07-23T04:17:24;22.33;;;16.20;;
8837;SDS011;4455;50.880;4.698;2022-07-23T04:19:50;21.83;;;16.93;;
8837;SDS011;4455;50.880;4.698;2022-07-23T04:22:16;17.83;;;15.70;;
8837;SDS011;4455;50.880;4.698;2022-07-23T04:24:42;23.77;;;17.73;;
8837;SDS011;4455;50.880;4.698;2022-07-23T04:27:09;21.20;;;16.00;;
8837;SDS011;4455;50.880;4.698;2022-07-23T04:29:35;21.27;;;17.03;;
8837;SDS011;4455;50.880;4.698;2022-07-23T04:32:01;22.47;;;16.70;;
8837;SDS011;4455;50.880;4.698;2022-07-23T04:34:28;23.13;;;17.00;;
8837;SDS011;4455;50.880;4.698;2022-07-23T04:36:53;22.03;;;16.50;;
8837;SDS011;4455;50.880;4.698;2022-07-23T04:39:19;26.80;;;17.07;;
8837;SDS011;4455;50.880;4.698;2022-07-23T04:41:45;18.83;;;15.70;;
8837;SDS011;4455;50.880;4.698;2022-07-23T04:44:11;19.57;;;16.33;;
8837;SDS011;4455;50.880;4.698;2022-07-23T04:46:37;20.13;;;15.83;;
8837;SDS011;4455;50.880;4.698;2022-07-23T04:49:03;20.80;;;17.13;;
8837;SDS011;4455;50.880;4.698;2022-07-23T04:51:29;23.50;;;17.57;;
8837;SDS011;4455;50.880;4.698;2022-07-23T04:53:55;22.30;;;17.23;;
8837;SDS011;4455;50.880;4.698;2022-07-23T04:56:21;18.97;;;16.80;;
8837;SDS011;4455;50.880;4.698;2022-07-23T04:58:47;24.00;;;16.87;;
8837;SDS011;4455;50.880;4.698;2022-07-23T05:01:13;24.60;;;17.27;;
8837;SDS011;4455;50.880;4.698;2022-07-23T05:03:39;22.57;;;17.93;;
8837;SDS011;4455;50.880;4.698;2022-07-23T05:06:05;22.77;;;17.07;;
8837;SDS011;4455;50.880;4.698;2022-07-23T05:08:32;24.10;;;17.03;;
8837;SDS011;4455;50.880;4.698;2022-07-23T05:10:57;19.00;;;15.57;;
8837;SDS011;4455;50.880;4.698;2022-07-23T05:13:23;22.03;;;16.57;;
8837;SDS011;4455;50.880;4.698;2022-07-23T05:15:49;23.07;;;16.10;;
8837;SDS011;4455;50.880;4.698;2022-07-23T05:18:16;21.07;;;15.17;;
8837;SDS011;4455;50.880;4.698;2022-07-23T05:20:42;22.10;;;15.63;;
8837;SDS011;4455;50.880;4.698;2022-07-23T05:23:08;18.10;;;15.13;;
8837;SDS011;4455;50.880;4.698;2022-07-23T05:25:35;19.60;;;14.97;;
8837;SDS011;4455;50.880;4.698;2022-07-23T05:28:01;21.13;;;15.83;;
8837;SDS011;4455;50.880;4.698;2022-07-23T05:30:29;18.80;;;14.40;;
8837;SDS011;4455;50.880;4.698;2022-07-23T05:32:55;20.07;;;15.50;;
8837;SDS011;4455;50.880;4.698;2022-07-23T05:35:21;17.47;;;13.93;;
8837;SDS011;4455;50.880;4.698;2022-07-23T05:37:47;15.67;;;13.97;;
8837;SDS011;4455;50.880;4.698;2022-07-23T05:40:13;16.30;;;14.23;;
8837;SDS011;4455;50.880;4.698;2022-07-23T05:42:40;17.80;;;13.70;;
8837;SDS011;4455;50.880;4.698;2022-07-23T05:45:07;15.77;;;13.30;;
8837;SDS011;4455;50.880;4.698;2022-07-23T05:47:43;21.83;;;14.90;;
8837;SDS011;4455;50.880;4.698;2022-07-23T05:50:14;13.63;;;11.67;;
8837;SDS011;4455;50.880;4.698;2022-07-23T05:52:42;16.87;;;12.40;;
8837;SDS011;4455;50.880;4.698;2022-07-23T05:55:09;13.93;;;12.00;;
8837;SDS011;4455;50.880;4.698;2022-07-23T05:57:37;13.97;;;11.23;;
8837;SDS011;4455;50.880;4.698;2022-07-23T06:00:03;19.47;;;12.77;;
8837;SDS011;4455;50.880;4.698;2022-07-23T06:02:32;13.30;;;11.87;;
8837;SDS011;4455;50.880;4.698;2022-07-23T06:04:57;11.90;;;10.63;;
8837;SDS011;4455;50.880;4.698;2022-07-23T06:07:23;13.03;;;10.93;;
8837;SDS011;4455;50.880;4.698;2022-07-23T06:09:49;16.87;;;12.57;;
8837;SDS011;4455;50.880;4.698;2022-07-23T06:12:16;15.87;;;13.03;;
8837;SDS011;4455;50.880;4.698;2022-07-23T06:14:42;14.67;;;12.17;;
8837;SDS011;4455;50.880;4.698;2022-07-23T06:17:08;17.90;;;13.07;;
8837;SDS011;4455;50.880;4.698;2022-07-23T06:19:34;15.67;;;13.10;;
8837;SDS011;4455;50.880;4.698;2022-07-23T06:22:00;18.47;;;14.37;;
8837;SDS011;4455;50.880;4.698;2022-07-23T06:24:26;15.03;;;13.03;;
8837;SDS011;4455;50.880;4.698;2022-07-23T06:26:52;14.60;;;12.63;;
8837;SDS011;4455;50.880;4.698;2022-07-23T06:29:17;14.70;;;11.93;;
8837;SDS011;4455;50.880;4.698;2022-07-23T06:31:43;14.73;;;11.63;;
8837;SDS011;4455;50.880;4.698;2022-07-23T06:34:09;13.63;;;11.53;;
8837;SDS011;4455;50.880;4.698;2022-07-23T06:36:35;15.10;;;11.80;;
8837;SDS011;4455;50.880;4.698;2022-07-23T06:39:01;12.23;;;10.93;;
8837;SDS011;4455;50.880;4.698;2022-07-23T06:41:27;15.20;;;11.63;;
8837;SDS011;4455;50.880;4.698;2022-07-23T06:43:53;12.83;;;11.30;;
8837;SDS011;4455;50.880;4.698;2022-07-23T06:46:20;13.07;;;11.27;;
8837;SDS011;4455;50.880;4.698;2022-07-23T06:48:46;12.03;;;10.83;;
8837;SDS011;4455;50.880;4.698;2022-07-23T06:51:12;12.87;;;10.33;;
8837;SDS011;4455;50.880;4.698;2022-07-23T06:53:38;13.97;;;11.40;;
8837;SDS011;4455;50.880;4.698;2022-07-23T06:56:04;12.27;;;10.27;;
8837;SDS011;4455;50.880;4.698;2022-07-23T06:58:30;11.37;;;10.17;;
8837;SDS011;4455;50.880;4.698;2022-07-23T07:00:55;12.00;;;10.03;;
8837;SDS011;4455;50.880;4.698;2022-07-23T07:03:22;11.70;;;9.83;;
8837;SDS011;4455;50.880;4.698;2022-07-23T07:05:48;15.47;;;9.83;;
8837;SDS011;4455;50.880;4.698;2022-07-23T07:08:15;13.67;;;9.97;;
8837;SDS011;4455;50.880;4.698;2022-07-23T07:10:41;12.93;;;10.67;;
8837;SDS011;4455;50.880;4.698;2022-07-23T07:13:07;14.93;;;11.37;;
8837;SDS011;4455;50.880;4.698;2022-07-23T07:15:34;16.87;;;11.20;;
8837;SDS011;4455;50.880;4.698;2022-07-23T07:18:00;11.07;;;9.87;;
8837;SDS011;4455;50.880;4.698;2022-07-23T07:20:26;13.70;;;10.50;;
8837;SDS011;4455;50.880;4.698;2022-07-23T07:22:51;11.73;;;10.53;;
8837;SDS011;4455;50.880;4.698;2022-07-23T07:25:17;9.70;;;8.70;;
8837;SDS011;4455;50.880;4.698;2022-07-23T07:27:44;11.03;;;9.77;;
8837;SDS011;4455;50.880;4.698;2022-07-23T07:30:10;12.73;;;9.40;;
8837;SDS011;4455;50.880;4.698;2022-07-23T07:32:36;11.97;;;9.30;;
8837;SDS011;4455;50.880;4.698;2022-07-23T07:35:05;14.37;;;9.77;;
8837;SDS011;4455;50.880;4.698;2022-07-23T07:37:32;10.27;;;8.23;;
8837;SDS011;4455;50.880;4.698;2022-07-23T07:40:00;10.50;;;8.70;;
8837;SDS011;4455;50.880;4.698;2022-07-23T07:42:26;10.70;;;9.57;;
8837;SDS011;4455;50.880;4.698;2022-07-23T07:44:52;12.43;;;9.97;;
8837;SDS011;4455;50.880;4.698;2022-07-23T07:47:17;9.10;;;8.20;;
8837;SDS011;4455;50.880;4.698;2022-07-23T07:49:43;11.90;;;8.90;;
8837;SDS011;4455;50.880;4.698;2022-07-23T07:52:09;17.37;;;14.83;;
8837;SDS011;4455;50.880;4.698;2022-07-23T07:54:35;11.07;;;9.10;;
8837;SDS011;4455;50.880;4.698;2022-07-23T07:57:02;11.27;;;9.00;;
8837;SDS011;4455;50.880;4.698;2022-07-23T07:59:28;10.23;;;8.53;;
8837;SDS011;4455;50.880;4.698;2022-07-23T08:01:54;10.70;;;8.83;;
8837;SDS011;4455;50.880;4.698;2022-07-23T08:04:20;15.77;;;9.37;;
8837;SDS011;4455;50.880;4.698;2022-07-23T08:06:45;9.50;;;8.50;;
8837;SDS011;4455;50.880;4.698;2022-07-23T08:09:11;10.13;;;8.17;;
8837;SDS011;4455;50.880;4.698;2022-07-23T08:11:37;10.67;;;8.20;;
8837;SDS011;4455;50.880;4.698;2022-07-23T08:14:03;9.30;;;8.13;;
8837;SDS011;4455;50.880;4.698;2022-07-23T08:16:29;10.67;;;8.40;;
8837;SDS011;4455;50.880;4.698;2022-07-23T08:18:54;11.47;;;8.50;;
8837;SDS011;4455;50.880;4.698;2022-07-23T08:21:20;10.73;;;8.50;;
8837;SDS011;4455;50.880;4.698;2022-07-23T08:23:46;10.00;;;8.00;;
8837;SDS011;4455;50.880;4.698;2022-07-23T08:26:12;9.57;;;7.40;;
8837;SDS011;4455;50.880;4.698;2022-07-23T08:28:39;9.67;;;8.60;;
8837;SDS011;4455;50.880;4.698;2022-07-23T08:31:05;10.67;;;8.27;;
8837;SDS011;4455;50.880;4.698;2022-07-23T08:33:31;9.77;;;8.77;;
8837;SDS011;4455;50.880;4.698;2022-07-23T08:35:57;11.63;;;10.10;;
8837;SDS011;4455;50.880;4.698;2022-07-23T08:38:25;12.13;;;8.93;;
8837;SDS011;4455;50.880;4.698;2022-07-23T08:40:53;12.57;;;7.43;;
8837;SDS011;4455;50.880;4.698;2022-07-23T08:43:22;11.90;;;8.07;;
8837;SDS011;4455;50.880;4.698;2022-07-23T08:45:50;11.87;;;9.60;;
8837;SDS011;4455;50.880;4.698;2022-07-23T08:48:20;11.93;;;8.97;;
8837;SDS011;4455;50.880;4.698;2022-07-23T08:50:51;11.77;;;9.07;;
8837;SDS011;4455;50.880;4.698;2022-07-23T08:53:20;12.30;;;8.03;;
8837;SDS011;4455;50.880;4.698;2022-07-23T08:55:48;9.97;;;7.83;;
8837;SDS011;4455;50.880;4.698;2022-07-23T08:58:17;10.53;;;7.57;;
8837;SDS011;4455;50.880;4.698;2022-07-23T09:00:44;9.30;;;6.07;;
8837;SDS011;4455;50.880;4.698;2022-07-23T09:03:24;10.10;;;7.50;;
8837;SDS011;4455;50.880;4.698;2022-07-23T09:05:51;9.87;;;6.80;;
8837;SDS011;4455;50.880;4.698;2022-07-23T09:08:21;11.73;;;7.10;;
8837;SDS011;4455;50.880;4.698;2022-07-23T09:10:51;10.57;;;6.87;;
8837;SDS011;4455;50.880;4.698;2022-07-23T09:16:09;8.30;;;5.97;;
8837;SDS011;4455;50.880;4.698;2022-07-23T09:21:24;10.40;;;7.13;;
8837;SDS011;4455;50.880;4.698;2022-07-23T09:23:58;9.00;;;7.13;;
8837;SDS011;4455;50.880;4.698;2022-07-23T09:26:25;9.27;;;6.40;;
8837;SDS011;4455;50.880;4.698;2022-07-23T09:28:59;7.90;;;7.10;;
8837;SDS011;4455;50.880;4.698;2022-07-23T09:34:27;7.47;;;5.80;;
8837;SDS011;4455;50.880;4.698;2022-07-23T09:39:42;8.80;;;6.23;;
8837;SDS011;4455;50.880;4.698;2022-07-23T09:42:17;6.13;;;5.10;;
8837;SDS011;4455;50.880;4.698;2022-07-23T09:44:45;6.80;;;5.70;;
8837;SDS011;4455;50.880;4.698;2022-07-23T09:47:12;6.53;;;5.27;;
8837;SDS011;4455;50.880;4.698;2022-07-23T09:49:39;7.07;;;5.30;;
8837;SDS011;4455;50.880;4.698;2022-07-23T09:52:06;8.80;;;5.83;;
8837;SDS011;4455;50.880;4.698;2022-07-23T09:57:10;7.47;;;4.60;;
8837;SDS011;4455;50.880;4.698;2022-07-23T09:59:42;6.63;;;4.77;;
8837;SDS011;4455;50.880;4.698;2022-07-23T10:02:11;7.67;;;4.60;;
8837;SDS011;4455;50.880;4.698;2022-07-23T10:04:38;7.40;;;4.33;;
8837;SDS011;4455;50.880;4.698;2022-07-23T10:07:06;6.50;;;4.03;;
8837;SDS011;4455;50.880;4.698;2022-07-23T10:09:35;6.43;;;3.90;;
8837;SDS011;4455;50.880;4.698;2022-07-23T10:12:10;6.27;;;4.80;;
8837;SDS011;4455;50.880;4.698;2022-07-23T10:14:40;6.23;;;4.77;;
8837;SDS011;4455;50.880;4.698;2022-07-23T10:17:08;6.07;;;4.43;;
8837;SDS011;4455;50.880;4.698;2022-07-23T10:19:34;4.87;;;4.30;;
8837;SDS011;4455;50.880;4.698;2022-07-23T10:22:01;7.00;;;4.70;;
8837;SDS011;4455;50.880;4.698;2022-07-23T10:30:36;6.47;;;3.60;;
8837;SDS011;4455;50.880;4.698;2022-07-23T10:36:09;3.40;;;3.03;;
8837;SDS011;4455;50.880;4.698;2022-07-23T10:38:51;4.40;;;2.80;;
8837;SDS011;4455;50.880;4.698;2022-07-23T10:41:36;5.13;;;2.77;;
8837;SDS011;4455;50.880;4.698;2022-07-23T10:46:33;3.90;;;2.97;;
8837;SDS011;4455;50.880;4.698;2022-07-23T10:54:43;3.93;;;3.20;;
8837;SDS011;4455;50.880;4.698;2022-07-23T10:57:09;4.40;;;3.07;;
8837;SDS011;4455;50.880;4.698;2022-07-23T11:02:30;3.50;;;3.20;;
8837;SDS011;4455;50.880;4.698;2022-07-23T11:05:05;3.77;;;2.70;;
8837;SDS011;4455;50.880;4.698;2022-07-23T11:07:36;6.37;;;3.37;;
8837;SDS011;4455;50.880;4.698;2022-07-23T11:10:32;3.60;;;3.30;;
8837;SDS011;4455;50.880;4.698;2022-07-23T11:31:56;3.97;;;3.37;;
8837;SDS011;4455;50.880;4.698;2022-07-23T11:37:04;6.17;;;3.60;;
8837;SDS011;4455;50.880;4.698;2022-07-23T11:39:32;4.20;;;2.93;;
8837;SDS011;4455;50.880;4.698;2022-07-23T11:41:59;4.07;;;2.77;;
8837;SDS011;4455;50.880;4.698;2022-07-23T11:44:27;3.17;;;2.60;;
8837;SDS011;4455;50.880;4.698;2022-07-23T11:46:57;3.67;;;3.37;;
8837;SDS011;4455;50.880;4.698;2022-07-23T11:49:25;3.50;;;3.20;;
8837;SDS011;4455;50.880;4.698;2022-07-23T11:54:47;4.57;;;3.67;;
8837;SDS011;4455;50.880;4.698;2022-07-23T11:57:15;3.43;;;3.13;;
8837;SDS011;4455;50.880;4.698;2022-07-23T11:59:42;3.97;;;2.90;;
8837;SDS011;4455;50.880;4.698;2022-07-23T12:02:12;4.27;;;3.20;;
8837;SDS011;4455;50.880;4.698;2022-07-23T12:04:44;4.10;;;3.23;;
8837;SDS011;4455;50.880;4.698;2022-07-23T12:07:25;4.57;;;3.10;;
8837;SDS011;4455;50.880;4.698;2022-07-23T12:09:59;6.10;;;3.30;;
8837;SDS011;4455;50.880;4.698;2022-07-23T12:12:42;7.70;;;4.00;;
8837;SDS011;4455;50.880;4.698;2022-07-23T12:15:23;3.97;;;3.37;;
8837;SDS011;4455;50.880;4.698;2022-07-23T12:17:51;5.00;;;3.47;;
8837;SDS011;4455;50.880;4.698;2022-07-23T12:20:23;3.90;;;3.37;;
8837;SDS011;4455;50.880;4.698;2022-07-23T12:22:52;4.53;;;3.57;;
8837;SDS011;4455;50.880;4.698;2022-07-23T12:25:23;5.50;;;3.23;;
8837;SDS011;4455;50.880;4.698;2022-07-23T12:28:00;3.93;;;3.23;;
8837;SDS011;4455;50.880;4.698;2022-07-23T12:30:40;3.00;;;2.70;;
8837;SDS011;4455;50.880;4.698;2022-07-23T12:33:10;3.10;;;2.80;;
8837;SDS011;4455;50.880;4.698;2022-07-23T12:35:38;4.50;;;3.07;;
8837;SDS011;4455;50.880;4.698;2022-07-23T12:38:12;4.07;;;3.00;;
8837;SDS011;4455;50.880;4.698;2022-07-23T12:40:52;3.47;;;3.17;;
8837;SDS011;4455;50.880;4.698;2022-07-23T12:43:24;3.53;;;3.20;;
8837;SDS011;4455;50.880;4.698;2022-07-23T12:46:11;4.30;;;3.23;;
8837;SDS011;4455;50.880;4.698;2022-07-23T12:51:23;5.10;;;3.30;;
8837;SDS011;4455;50.880;4.698;2022-07-23T12:53:51;3.30;;;3.00;;
8837;SDS011;4455;50.880;4.698;2022-07-23T12:56:29;5.13;;;3.10;;
8837;SDS011;4455;50.880;4.698;2022-07-23T12:58:57;3.63;;;3.33;;
8837;SDS011;4455;50.880;4.698;2022-07-23T13:01:38;4.17;;;3.07;;
8837;SDS011;4455;50.880;4.698;2022-07-23T13:04:06;5.47;;;3.37;;
8837;SDS011;4455;50.880;4.698;2022-07-23T13:06:33;4.87;;;3.10;;
8837;SDS011;4455;50.880;4.698;2022-07-23T13:09:08;3.80;;;3.03;;
8837;SDS011;4455;50.880;4.698;2022-07-23T13:11:36;4.80;;;2.90;;
8837;SDS011;4455;50.880;4.698;2022-07-23T13:14:02;3.30;;;3.00;;
8837;SDS011;4455;50.880;4.698;2022-07-23T13:16:29;5.13;;;2.80;;
8837;SDS011;4455;50.880;4.698;2022-07-23T13:18:56;4.17;;;2.80;;
8837;SDS011;4455;50.880;4.698;2022-07-23T13:21:23;4.00;;;3.20;;
8837;SDS011;4455;50.880;4.698;2022-07-23T13:23:50;3.50;;;3.20;;
8837;SDS011;4455;50.880;4.698;2022-07-23T13:26:16;4.87;;;3.70;;
8837;SDS011;4455;50.880;4.698;2022-07-23T13:28:42;5.43;;;3.00;;
8837;SDS011;4455;50.880;4.698;2022-07-23T13:31:09;3.93;;;3.63;;
8837;SDS011;4455;50.880;4.698;2022-07-23T13:33:34;3.60;;;3.13;;
8837;SDS011;4455;50.880;4.698;2022-07-23T13:36:01;4.27;;;3.20;;
8837;SDS011;4455;50.880;4.698;2022-07-23T13:38:27;5.23;;;3.27;;
8837;SDS011;4455;50.880;4.698;2022-07-23T13:40:53;4.47;;;3.00;;
8837;SDS011;4455;50.880;4.698;2022-07-23T13:43:20;3.43;;;3.13;;
8837;SDS011;4455;50.880;4.698;2022-07-23T13:45:49;4.83;;;3.60;;
8837;SDS011;4455;50.880;4.698;2022-07-23T13:48:16;3.93;;;3.33;;
8837;SDS011;4455;50.880;4.698;2022-07-23T13:50:44;4.77;;;3.20;;
8837;SDS011;4455;50.880;4.698;2022-07-23T13:53:12;4.43;;;3.10;;
8837;SDS011;4455;50.880;4.698;2022-07-23T13:55:44;3.53;;;3.00;;
8837;SDS011;4455;50.880;4.698;2022-07-23T13:58:10;4.47;;;2.93;;
8837;SDS011;4455;50.880;4.698;2022-07-23T14:00:37;3.50;;;3.20;;
8837;SDS011;4455;50.880;4.698;2022-07-23T14:03:08;3.20;;;2.90;;
8837;SDS011;4455;50.880;4.698;2022-07-23T14:08:06;4.73;;;3.17;;
8837;SDS011;4455;50.880;4.698;2022-07-23T14:10:32;3.60;;;3.20;;
8837;SDS011;4455;50.880;4.698;2022-07-23T14:12:58;3.60;;;3.30;;
8837;SDS011;4455;50.880;4.698;2022-07-23T14:15:27;4.30;;;3.30;;
8837;SDS011;4455;50.880;4.698;2022-07-23T14:17:57;3.70;;;3.30;;
8837;SDS011;4455;50.880;4.698;2022-07-23T14:20:23;3.63;;;3.20;;
8837;SDS011;4455;50.880;4.698;2022-07-23T14:22:50;3.70;;;3.20;;
8837;SDS011;4455;50.880;4.698;2022-07-23T14:25:16;4.63;;;3.80;;
8837;SDS011;4455;50.880;4.698;2022-07-23T14:27:43;3.93;;;3.63;;
8837;SDS011;4455;50.880;4.698;2022-07-23T14:30:10;3.90;;;3.40;;
8837;SDS011;4455;50.880;4.698;2022-07-23T14:32:36;4.37;;;3.50;;
8837;SDS011;4455;50.880;4.698;2022-07-23T14:35:02;4.00;;;3.60;;
8837;SDS011;4455;50.880;4.698;2022-07-23T14:37:29;4.83;;;3.40;;
8837;SDS011;4455;50.880;4.698;2022-07-23T14:39:55;5.67;;;3.70;;
8837;SDS011;4455;50.880;4.698;2022-07-23T14:42:21;4.80;;;3.50;;
8837;SDS011;4455;50.880;4.698;2022-07-23T14:44:47;5.53;;;3.63;;
8837;SDS011;4455;50.880;4.698;2022-07-23T14:47:13;4.37;;;3.67;;
8837;SDS011;4455;50.880;4.698;2022-07-23T14:49:39;5.83;;;3.77;;
8837;SDS011;4455;50.880;4.698;2022-07-23T14:52:05;4.20;;;3.67;;
8837;SDS011;4455;50.880;4.698;2022-07-23T14:54:32;4.47;;;3.37;;
8837;SDS011;4455;50.880;4.698;2022-07-23T14:56:59;4.37;;;3.97;;
8837;SDS011;4455;50.880;4.698;2022-07-23T14:59:27;5.80;;;3.60;;
8837;SDS011;4455;50.880;4.698;2022-07-23T15:01:54;5.40;;;4.00;;
8837;SDS011;4455;50.880;4.698;2022-07-23T15:04:29;4.00;;;3.43;;
8837;SDS011;4455;50.880;4.698;2022-07-23T15:06:55;4.60;;;3.70;;
8837;SDS011;4455;50.880;4.698;2022-07-23T15:09:21;5.07;;;4.03;;
8837;SDS011;4455;50.880;4.698;2022-07-23T15:11:47;4.83;;;3.97;;
8837;SDS011;4455;50.880;4.698;2022-07-23T15:14:13;4.53;;;3.67;;
8837;SDS011;4455;50.880;4.698;2022-07-23T15:16:39;4.70;;;4.10;;
8837;SDS011;4455;50.880;4.698;2022-07-23T15:19:05;4.77;;;3.90;;
8837;SDS011;4455;50.880;4.698;2022-07-23T15:21:31;5.87;;;4.17;;
8837;SDS011;4455;50.880;4.698;2022-07-23T15:23:57;4.13;;;3.70;;
8837;SDS011;4455;50.880;4.698;2022-07-23T15:26:29;5.83;;;4.10;;
8837;SDS011;4455;50.880;4.698;2022-07-23T15:28:57;4.70;;;4.20;;
8837;SDS011;4455;50.880;4.698;2022-07-23T15:31:24;4.63;;;4.10;;
8837;SDS011;4455;50.880;4.698;2022-07-23T15:33:50;6.80;;;4.30;;
8837;SDS011;4455;50.880;4.698;2022-07-23T15:36:18;4.53;;;4.10;;
8837;SDS011;4455;50.880;4.698;2022-07-23T15:38:44;5.47;;;4.20;;
8837;SDS011;4455;50.880;4.698;2022-07-23T15:41:10;5.10;;;4.37;;
8837;SDS011;4455;50.880;4.698;2022-07-23T15:43:36;4.50;;;4.10;;
8837;SDS011;4455;50.880;4.698;2022-07-23T15:46:03;4.50;;;4.10;;
8837;SDS011;4455;50.880;4.698;2022-07-23T15:48:30;6.20;;;4.10;;
8837;SDS011;4455;50.880;4.698;2022-07-23T15:50:56;4.60;;;4.20;;
8837;SDS011;4455;50.880;4.698;2022-07-23T15:53:22;5.40;;;4.90;;
8837;SDS011;4455;50.880;4.698;2022-07-23T15:55:48;4.77;;;4.27;;
8837;SDS011;4455;50.880;4.698;2022-07-23T15:58:14;7.17;;;4.53;;
8837;SDS011;4455;50.880;4.698;2022-07-23T16:00:40;6.10;;;4.60;;
8837;SDS011;4455;50.880;4.698;2022-07-23T16:03:07;11.57;;;9.10;;
8837;SDS011;4455;50.880;4.698;2022-07-23T16:05:33;7.87;;;5.57;;